sensor_id;sensor_type;location;lat;lon;timestamp;P1;durP1;ratioP1;P2;durP2;ratioP2
49842;SDS011;55559;48.898;9.184;2023-12-22T00:00:37;5.32;;;0.35;;
49842;SDS011;55559;48.898;9.184;2023-12-22T00:03:04;8.23;;;0.45;;
49842;SDS011;55559;48.898;9.184;2023-12-22T00:05:31;2.17;;;0.30;;
49842;SDS011;55559;48.898;9.184;2023-12-22T00:07:58;5.15;;;0.30;;
49842;SDS011;55559;48.898;9.184;2023-12-22T00:10:25;4.85;;;0.35;;
49842;SDS011;55559;48.898;9.184;2023-12-22T00:12:54;4.30;;;0.38;;
49842;SDS011;55559;48.898;9.184;2023-12-22T00:15:21;4.22;;;0.30;;
49842;SDS011;55559;48.898;9.184;2023-12-22T00:17:48;2.13;;;0.22;;
49842;SDS011;55559;48.898;9.184;2023-12-22T00:20:15;7.05;;;0.40;;
49842;SDS011;55559;48.898;9.184;2023-12-22T00:22:42;1.77;;;0.20;;
49842;SDS011;55559;48.898;9.184;2023-12-22T00:25:10;4.82;;;0.90;;
49842;SDS011;55559;48.898;9.184;2023-12-22T00:27:37;3.60;;;0.30;;
49842;SDS011;55559;48.898;9.184;2023-12-22T00:30:06;6.80;;;0.50;;
49842;SDS011;55559;48.898;9.184;2023-12-22T00:32:33;9.40;;;0.60;;
49842;SDS011;55559;48.898;9.184;2023-12-22T00:34:59;6.35;;;0.35;;
49842;SDS011;55559;48.898;9.184;2023-12-22T00:37:26;5.65;;;0.30;;
49842;SDS011;55559;48.898;9.184;2023-12-22T00:39:53;6.88;;;0.57;;
49842;SDS011;55559;48.898;9.184;2023-12-22T00:42:20;4.32;;;0.20;;
49842;SDS011;55559;48.898;9.184;2023-12-22T00:44:47;3.10;;;0.15;;
49842;SDS011;55559;48.898;9.184;2023-12-22T00:47:16;1.70;;;0.30;;
49842;SDS011;55559;48.898;9.184;2023-12-22T00:49:43;2.42;;;0.20;;
49842;SDS011;55559;48.898;9.184;2023-12-22T00:52:10;1.85;;;0.38;;
49842;SDS011;55559;48.898;9.184;2023-12-22T00:54:37;1.92;;;0.50;;
49842;SDS011;55559;48.898;9.184;2023-12-22T00:57:04;5.22;;;0.60;;
49842;SDS011;55559;48.898;9.184;2023-12-22T00:59:32;3.75;;;0.35;;
49842;SDS011;55559;48.898;9.184;2023-12-22T01:01:59;4.60;;;0.50;;
49842;SDS011;55559;48.898;9.184;2023-12-22T01:04:27;1.75;;;0.30;;
49842;SDS011;55559;48.898;9.184;2023-12-22T01:06:54;6.03;;;0.25;;
49842;SDS011;55559;48.898;9.184;2023-12-22T01:09:21;3.05;;;0.40;;
49842;SDS011;55559;48.898;9.184;2023-12-22T01:11:49;2.35;;;0.25;;
49842;SDS011;55559;48.898;9.184;2023-12-22T01:14:16;4.30;;;0.20;;
49842;SDS011;55559;48.898;9.184;2023-12-22T01:16:43;7.28;;;0.30;;
49842;SDS011;55559;48.898;9.184;2023-12-22T01:19:10;2.72;;;0.35;;
49842;SDS011;55559;48.898;9.184;2023-12-22T01:21:38;4.47;;;0.30;;
49842;SDS011;55559;48.898;9.184;2023-12-22T01:24:05;6.60;;;0.38;;
49842;SDS011;55559;48.898;9.184;2023-12-22T01:26:33;7.78;;;0.60;;
49842;SDS011;55559;48.898;9.184;2023-12-22T01:29:00;4.40;;;0.43;;
49842;SDS011;55559;48.898;9.184;2023-12-22T01:31:27;4.95;;;0.85;;
49842;SDS011;55559;48.898;9.184;2023-12-22T01:33:54;8.70;;;1.02;;
49842;SDS011;55559;48.898;9.184;2023-12-22T01:36:21;7.05;;;0.63;;
49842;SDS011;55559;48.898;9.184;2023-12-22T01:38:50;10.55;;;0.40;;
49842;SDS011;55559;48.898;9.184;2023-12-22T01:41:17;4.97;;;0.40;;
49842;SDS011;55559;48.898;9.184;2023-12-22T01:43:44;10.57;;;0.68;;
49842;SDS011;55559;48.898;9.184;2023-12-22T01:46:11;13.02;;;0.60;;
49842;SDS011;55559;48.898;9.184;2023-12-22T01:48:38;6.72;;;0.55;;
49842;SDS011;55559;48.898;9.184;2023-12-22T01:51:06;12.52;;;0.60;;
49842;SDS011;55559;48.898;9.184;2023-12-22T01:53:33;10.20;;;0.60;;
49842;SDS011;55559;48.898;9.184;2023-12-22T01:56:03;7.63;;;0.30;;
49842;SDS011;55559;48.898;9.184;2023-12-22T01:58:31;5.93;;;0.57;;
49842;SDS011;55559;48.898;9.184;2023-12-22T02:01:08;6.97;;;0.77;;
49842;SDS011;55559;48.898;9.184;2023-12-22T02:03:35;5.70;;;0.45;;
49842;SDS011;55559;48.898;9.184;2023-12-22T02:06:03;3.10;;;0.20;;
49842;SDS011;55559;48.898;9.184;2023-12-22T02:08:31;4.35;;;0.20;;
49842;SDS011;55559;48.898;9.184;2023-12-22T02:10:58;6.32;;;0.30;;
49842;SDS011;55559;48.898;9.184;2023-12-22T02:13:27;7.18;;;0.20;;
49842;SDS011;55559;48.898;9.184;2023-12-22T02:15:56;6.78;;;0.40;;
49842;SDS011;55559;48.898;9.184;2023-12-22T02:18:29;4.75;;;0.20;;
49842;SDS011;55559;48.898;9.184;2023-12-22T02:20:58;8.57;;;0.30;;
49842;SDS011;55559;48.898;9.184;2023-12-22T02:23:27;4.18;;;0.20;;
49842;SDS011;55559;48.898;9.184;2023-12-22T02:25:56;3.78;;;0.20;;
49842;SDS011;55559;48.898;9.184;2023-12-22T02:28:24;1.70;;;0.20;;
49842;SDS011;55559;48.898;9.184;2023-12-22T02:30:53;3.85;;;0.60;;
49842;SDS011;55559;48.898;9.184;2023-12-22T02:33:22;2.63;;;0.20;;
49842;SDS011;55559;48.898;9.184;2023-12-22T02:35:49;4.82;;;0.20;;
49842;SDS011;55559;48.898;9.184;2023-12-22T02:38:17;3.60;;;0.20;;
49842;SDS011;55559;48.898;9.184;2023-12-22T02:40:46;4.43;;;0.20;;
49842;SDS011;55559;48.898;9.184;2023-12-22T02:43:13;2.60;;;0.10;;
49842;SDS011;55559;48.898;9.184;2023-12-22T02:45:40;2.22;;;0.30;;
49842;SDS011;55559;48.898;9.184;2023-12-22T02:48:07;3.53;;;0.20;;
49842;SDS011;55559;48.898;9.184;2023-12-22T02:50:34;2.80;;;0.20;;
49842;SDS011;55559;48.898;9.184;2023-12-22T02:53:02;7.28;;;0.40;;
49842;SDS011;55559;48.898;9.184;2023-12-22T02:55:29;5.60;;;0.28;;
49842;SDS011;55559;48.898;9.184;2023-12-22T02:57:57;3.90;;;0.40;;
49842;SDS011;55559;48.898;9.184;2023-12-22T03:00:24;5.22;;;0.30;;
49842;SDS011;55559;48.898;9.184;2023-12-22T03:02:52;2.85;;;0.17;;
49842;SDS011;55559;48.898;9.184;2023-12-22T03:05:18;3.50;;;0.40;;
49842;SDS011;55559;48.898;9.184;2023-12-22T03:07:46;3.75;;;0.30;;
49842;SDS011;55559;48.898;9.184;2023-12-22T03:10:13;3.92;;;0.40;;
49842;SDS011;55559;48.898;9.184;2023-12-22T03:12:40;10.95;;;0.45;;
49842;SDS011;55559;48.898;9.184;2023-12-22T03:15:09;5.63;;;0.30;;
49842;SDS011;55559;48.898;9.184;2023-12-22T03:17:36;3.13;;;0.43;;
49842;SDS011;55559;48.898;9.184;2023-12-22T03:20:03;3.33;;;0.30;;
49842;SDS011;55559;48.898;9.184;2023-12-22T03:22:31;3.08;;;0.30;;
49842;SDS011;55559;48.898;9.184;2023-12-22T03:24:58;7.30;;;0.60;;
49842;SDS011;55559;48.898;9.184;2023-12-22T03:27:25;11.60;;;0.40;;
49842;SDS011;55559;48.898;9.184;2023-12-22T03:29:52;3.22;;;0.35;;
49842;SDS011;55559;48.898;9.184;2023-12-22T03:32:23;10.05;;;0.63;;
49842;SDS011;55559;48.898;9.184;2023-12-22T03:34:50;4.22;;;0.38;;
49842;SDS011;55559;48.898;9.184;2023-12-22T03:37:17;2.83;;;0.28;;
49842;SDS011;55559;48.898;9.184;2023-12-22T03:39:44;7.43;;;0.40;;
49842;SDS011;55559;48.898;9.184;2023-12-22T03:42:11;3.90;;;0.30;;
49842;SDS011;55559;48.898;9.184;2023-12-22T03:44:38;3.72;;;0.32;;
49842;SDS011;55559;48.898;9.184;2023-12-22T03:47:05;6.57;;;0.30;;
49842;SDS011;55559;48.898;9.184;2023-12-22T03:49:34;8.45;;;0.30;;
49842;SDS011;55559;48.898;9.184;2023-12-22T03:52:01;8.32;;;0.70;;
49842;SDS011;55559;48.898;9.184;2023-12-22T03:54:28;9.55;;;0.30;;
49842;SDS011;55559;48.898;9.184;2023-12-22T03:56:55;3.95;;;0.30;;
49842;SDS011;55559;48.898;9.184;2023-12-22T03:59:22;3.38;;;0.50;;
49842;SDS011;55559;48.898;9.184;2023-12-22T04:01:52;7.20;;;0.40;;
49842;SDS011;55559;48.898;9.184;2023-12-22T04:04:20;8.85;;;0.98;;
49842;SDS011;55559;48.898;9.184;2023-12-22T04:06:49;6.10;;;0.30;;
49842;SDS011;55559;48.898;9.184;2023-12-22T04:09:17;4.38;;;0.40;;
49842;SDS011;55559;48.898;9.184;2023-12-22T04:11:44;2.97;;;0.20;;
49842;SDS011;55559;48.898;9.184;2023-12-22T04:14:11;2.90;;;0.10;;
49842;SDS011;55559;48.898;9.184;2023-12-22T04:16:38;3.13;;;0.30;;
49842;SDS011;55559;48.898;9.184;2023-12-22T04:19:05;2.47;;;0.20;;
49842;SDS011;55559;48.898;9.184;2023-12-22T04:21:32;3.28;;;0.32;;
49842;SDS011;55559;48.898;9.184;2023-12-22T04:24:01;3.13;;;0.20;;
49842;SDS011;55559;48.898;9.184;2023-12-22T04:26:30;5.72;;;0.30;;
49842;SDS011;55559;48.898;9.184;2023-12-22T04:28:56;4.63;;;0.82;;
49842;SDS011;55559;48.898;9.184;2023-12-22T04:31:24;8.93;;;0.50;;
49842;SDS011;55559;48.898;9.184;2023-12-22T04:33:50;17.65;;;0.70;;
49842;SDS011;55559;48.898;9.184;2023-12-22T04:36:18;6.65;;;0.30;;
49842;SDS011;55559;48.898;9.184;2023-12-22T04:38:45;5.88;;;0.30;;
49842;SDS011;55559;48.898;9.184;2023-12-22T04:41:13;7.78;;;0.50;;
49842;SDS011;55559;48.898;9.184;2023-12-22T04:43:40;11.25;;;0.63;;
49842;SDS011;55559;48.898;9.184;2023-12-22T04:46:07;7.03;;;0.40;;
49842;SDS011;55559;48.898;9.184;2023-12-22T04:48:34;3.90;;;0.70;;
49842;SDS011;55559;48.898;9.184;2023-12-22T04:51:01;7.25;;;0.50;;
49842;SDS011;55559;48.898;9.184;2023-12-22T04:53:29;3.95;;;0.40;;
49842;SDS011;55559;48.898;9.184;2023-12-22T04:55:56;6.30;;;0.40;;
49842;SDS011;55559;48.898;9.184;2023-12-22T04:58:24;7.20;;;0.50;;
49842;SDS011;55559;48.898;9.184;2023-12-22T05:00:51;8.63;;;0.82;;
49842;SDS011;55559;48.898;9.184;2023-12-22T05:03:18;4.85;;;0.50;;
49842;SDS011;55559;48.898;9.184;2023-12-22T05:05:45;9.45;;;0.50;;
49842;SDS011;55559;48.898;9.184;2023-12-22T05:08:12;5.47;;;0.43;;
49842;SDS011;55559;48.898;9.184;2023-12-22T05:10:41;9.13;;;0.77;;
49842;SDS011;55559;48.898;9.184;2023-12-22T05:13:08;10.45;;;0.75;;
49842;SDS011;55559;48.898;9.184;2023-12-22T05:15:37;6.38;;;0.57;;
49842;SDS011;55559;48.898;9.184;2023-12-22T05:18:04;6.55;;;0.40;;
49842;SDS011;55559;48.898;9.184;2023-12-22T05:20:32;7.30;;;0.50;;
49842;SDS011;55559;48.898;9.184;2023-12-22T05:23:00;10.52;;;0.88;;
49842;SDS011;55559;48.898;9.184;2023-12-22T05:25:27;16.77;;;1.23;;
49842;SDS011;55559;48.898;9.184;2023-12-22T05:27:54;9.88;;;0.55;;
49842;SDS011;55559;48.898;9.184;2023-12-22T05:30:21;9.27;;;1.13;;
49842;SDS011;55559;48.898;9.184;2023-12-22T05:32:50;9.93;;;0.60;;
49842;SDS011;55559;48.898;9.184;2023-12-22T05:35:17;10.00;;;1.13;;
49842;SDS011;55559;48.898;9.184;2023-12-22T05:37:44;10.85;;;0.50;;
49842;SDS011;55559;48.898;9.184;2023-12-22T05:40:11;5.57;;;0.88;;
49842;SDS011;55559;48.898;9.184;2023-12-22T05:42:38;11.13;;;0.80;;
49842;SDS011;55559;48.898;9.184;2023-12-22T05:45:05;8.02;;;0.50;;
49842;SDS011;55559;48.898;9.184;2023-12-22T05:47:33;13.60;;;0.60;;
49842;SDS011;55559;48.898;9.184;2023-12-22T05:50:01;17.92;;;1.48;;
49842;SDS011;55559;48.898;9.184;2023-12-22T05:52:28;14.32;;;0.73;;
49842;SDS011;55559;48.898;9.184;2023-12-22T05:54:56;12.52;;;0.68;;
49842;SDS011;55559;48.898;9.184;2023-12-22T05:57:24;11.48;;;1.00;;
49842;SDS011;55559;48.898;9.184;2023-12-22T05:59:51;14.88;;;1.20;;
49842;SDS011;55559;48.898;9.184;2023-12-22T06:02:19;10.75;;;1.63;;
49842;SDS011;55559;48.898;9.184;2023-12-22T06:04:46;8.85;;;0.52;;
49842;SDS011;55559;48.898;9.184;2023-12-22T06:07:15;14.55;;;0.93;;
49842;SDS011;55559;48.898;9.184;2023-12-22T06:09:42;10.20;;;1.13;;
49842;SDS011;55559;48.898;9.184;2023-12-22T06:12:09;10.10;;;0.75;;
49842;SDS011;55559;48.898;9.184;2023-12-22T06:14:36;23.77;;;1.35;;
49842;SDS011;55559;48.898;9.184;2023-12-22T06:17:04;16.10;;;2.42;;
49842;SDS011;55559;48.898;9.184;2023-12-22T06:19:31;20.40;;;1.77;;
49842;SDS011;55559;48.898;9.184;2023-12-22T06:21:58;9.95;;;0.63;;
49842;SDS011;55559;48.898;9.184;2023-12-22T06:24:27;9.73;;;0.60;;
49842;SDS011;55559;48.898;9.184;2023-12-22T06:26:54;13.07;;;1.52;;
49842;SDS011;55559;48.898;9.184;2023-12-22T06:29:21;9.57;;;0.90;;
49842;SDS011;55559;48.898;9.184;2023-12-22T06:31:48;11.40;;;1.08;;
49842;SDS011;55559;48.898;9.184;2023-12-22T06:34:16;10.70;;;1.05;;
49842;SDS011;55559;48.898;9.184;2023-12-22T06:36:43;12.52;;;0.82;;
49842;SDS011;55559;48.898;9.184;2023-12-22T06:39:10;17.08;;;1.52;;
49842;SDS011;55559;48.898;9.184;2023-12-22T06:41:39;13.95;;;0.95;;
49842;SDS011;55559;48.898;9.184;2023-12-22T06:44:06;7.50;;;0.63;;
49842;SDS011;55559;48.898;9.184;2023-12-22T06:46:36;8.95;;;0.63;;
49842;SDS011;55559;48.898;9.184;2023-12-22T06:49:03;17.95;;;1.52;;
49842;SDS011;55559;48.898;9.184;2023-12-22T06:51:31;11.45;;;0.65;;
49842;SDS011;55559;48.898;9.184;2023-12-22T06:54:00;14.32;;;1.08;;
49842;SDS011;55559;48.898;9.184;2023-12-22T06:56:28;4.75;;;0.40;;
49842;SDS011;55559;48.898;9.184;2023-12-22T06:58:57;6.50;;;0.70;;
49842;SDS011;55559;48.898;9.184;2023-12-22T07:01:25;16.92;;;1.95;;
49842;SDS011;55559;48.898;9.184;2023-12-22T07:03:52;10.77;;;1.17;;
49842;SDS011;55559;48.898;9.184;2023-12-22T07:06:19;9.95;;;0.88;;
49842;SDS011;55559;48.898;9.184;2023-12-22T07:08:57;10.85;;;0.63;;
49842;SDS011;55559;48.898;9.184;2023-12-22T07:11:24;14.18;;;0.70;;
49842;SDS011;55559;48.898;9.184;2023-12-22T07:13:51;10.88;;;0.90;;
49842;SDS011;55559;48.898;9.184;2023-12-22T07:16:19;17.73;;;1.50;;
49842;SDS011;55559;48.898;9.184;2023-12-22T07:18:46;9.45;;;0.60;;
49842;SDS011;55559;48.898;9.184;2023-12-22T07:21:15;11.00;;;0.80;;
49842;SDS011;55559;48.898;9.184;2023-12-22T07:23:43;12.82;;;0.70;;
49842;SDS011;55559;48.898;9.184;2023-12-22T07:26:10;16.13;;;1.73;;
49842;SDS011;55559;48.898;9.184;2023-12-22T07:28:41;13.48;;;0.60;;
49842;SDS011;55559;48.898;9.184;2023-12-22T07:31:08;9.52;;;0.85;;
49842;SDS011;55559;48.898;9.184;2023-12-22T07:33:37;11.13;;;0.70;;
49842;SDS011;55559;48.898;9.184;2023-12-22T07:36:04;14.70;;;2.15;;
49842;SDS011;55559;48.898;9.184;2023-12-22T07:38:31;20.52;;;1.98;;
49842;SDS011;55559;48.898;9.184;2023-12-22T07:40:59;12.88;;;0.70;;
49842;SDS011;55559;48.898;9.184;2023-12-22T07:43:26;6.63;;;1.02;;
49842;SDS011;55559;48.898;9.184;2023-12-22T07:45:55;10.15;;;1.15;;
49842;SDS011;55559;48.898;9.184;2023-12-22T07:48:25;25.17;;;7.97;;
49842;SDS011;55559;48.898;9.184;2023-12-22T07:50:53;12.77;;;2.35;;
49842;SDS011;55559;48.898;9.184;2023-12-22T07:53:20;20.65;;;5.80;;
49842;SDS011;55559;48.898;9.184;2023-12-22T07:55:47;14.45;;;2.50;;
49842;SDS011;55559;48.898;9.184;2023-12-22T07:58:15;12.07;;;1.13;;
49842;SDS011;55559;48.898;9.184;2023-12-22T08:00:43;17.67;;;1.40;;
49842;SDS011;55559;48.898;9.184;2023-12-22T08:03:11;12.82;;;0.75;;
49842;SDS011;55559;48.898;9.184;2023-12-22T08:05:38;9.90;;;0.80;;
49842;SDS011;55559;48.898;9.184;2023-12-22T08:08:07;11.95;;;1.13;;
49842;SDS011;55559;48.898;9.184;2023-12-22T08:10:34;11.65;;;1.83;;
49842;SDS011;55559;48.898;9.184;2023-12-22T08:13:01;14.07;;;1.42;;
49842;SDS011;55559;48.898;9.184;2023-12-22T08:15:28;8.32;;;1.20;;
49842;SDS011;55559;48.898;9.184;2023-12-22T08:17:57;18.45;;;1.50;;
49842;SDS011;55559;48.898;9.184;2023-12-22T08:20:24;24.48;;;3.10;;
49842;SDS011;55559;48.898;9.184;2023-12-22T08:22:51;93.40;;;45.55;;
49842;SDS011;55559;48.898;9.184;2023-12-22T08:25:20;14.95;;;1.80;;
49842;SDS011;55559;48.898;9.184;2023-12-22T08:27:47;33.83;;;4.50;;
49842;SDS011;55559;48.898;9.184;2023-12-22T08:30:14;21.00;;;3.90;;
49842;SDS011;55559;48.898;9.184;2023-12-22T08:32:41;24.10;;;5.32;;
49842;SDS011;55559;48.898;9.184;2023-12-22T08:35:08;22.58;;;4.28;;
49842;SDS011;55559;48.898;9.184;2023-12-22T08:37:35;11.60;;;1.65;;
49842;SDS011;55559;48.898;9.184;2023-12-22T08:40:05;9.75;;;0.70;;
49842;SDS011;55559;48.898;9.184;2023-12-22T08:42:34;14.27;;;1.25;;
49842;SDS011;55559;48.898;9.184;2023-12-22T08:45:01;17.88;;;1.20;;
49842;SDS011;55559;48.898;9.184;2023-12-22T08:47:30;16.75;;;1.58;;
49842;SDS011;55559;48.898;9.184;2023-12-22T08:49:57;22.35;;;1.75;;
49842;SDS011;55559;48.898;9.184;2023-12-22T08:52:24;13.13;;;1.02;;
49842;SDS011;55559;48.898;9.184;2023-12-22T08:54:51;29.17;;;2.03;;
49842;SDS011;55559;48.898;9.184;2023-12-22T08:57:19;19.63;;;1.60;;
49842;SDS011;55559;48.898;9.184;2023-12-22T08:59:48;28.88;;;3.13;;
49842;SDS011;55559;48.898;9.184;2023-12-22T09:02:15;21.08;;;2.45;;
49842;SDS011;55559;48.898;9.184;2023-12-22T09:04:42;22.42;;;1.95;;
49842;SDS011;55559;48.898;9.184;2023-12-22T09:07:09;18.85;;;2.17;;
49842;SDS011;55559;48.898;9.184;2023-12-22T09:09:36;14.13;;;1.13;;
49842;SDS011;55559;48.898;9.184;2023-12-22T09:12:03;19.67;;;1.92;;
49842;SDS011;55559;48.898;9.184;2023-12-22T09:14:30;33.20;;;2.05;;
49842;SDS011;55559;48.898;9.184;2023-12-22T09:16:59;32.63;;;2.15;;
49842;SDS011;55559;48.898;9.184;2023-12-22T09:19:26;34.95;;;3.33;;
49842;SDS011;55559;48.898;9.184;2023-12-22T09:21:53;28.15;;;1.75;;
49842;SDS011;55559;48.898;9.184;2023-12-22T09:24:20;29.73;;;1.95;;
49842;SDS011;55559;48.898;9.184;2023-12-22T09:26:46;21.40;;;1.83;;
49842;SDS011;55559;48.898;9.184;2023-12-22T09:29:13;14.77;;;2.13;;
49842;SDS011;55559;48.898;9.184;2023-12-22T09:31:40;25.33;;;2.03;;
49842;SDS011;55559;48.898;9.184;2023-12-22T09:34:09;29.30;;;2.13;;
49842;SDS011;55559;48.898;9.184;2023-12-22T09:36:36;17.63;;;1.92;;
49842;SDS011;55559;48.898;9.184;2023-12-22T09:39:03;18.90;;;2.17;;
49842;SDS011;55559;48.898;9.184;2023-12-22T09:41:30;23.45;;;2.22;;
49842;SDS011;55559;48.898;9.184;2023-12-22T09:43:57;24.35;;;2.53;;
49842;SDS011;55559;48.898;9.184;2023-12-22T09:46:25;18.90;;;2.05;;
49842;SDS011;55559;48.898;9.184;2023-12-22T09:48:53;31.17;;;2.30;;
49842;SDS011;55559;48.898;9.184;2023-12-22T09:51:22;18.80;;;1.80;;
49842;SDS011;55559;48.898;9.184;2023-12-22T09:53:49;18.73;;;1.90;;
49842;SDS011;55559;48.898;9.184;2023-12-22T09:56:17;26.13;;;2.28;;
49842;SDS011;55559;48.898;9.184;2023-12-22T09:58:45;30.88;;;2.38;;
49842;SDS011;55559;48.898;9.184;2023-12-22T10:01:13;21.83;;;2.65;;
49842;SDS011;55559;48.898;9.184;2023-12-22T10:03:40;26.92;;;2.25;;
49842;SDS011;55559;48.898;9.184;2023-12-22T10:06:10;24.27;;;1.70;;
49842;SDS011;55559;48.898;9.184;2023-12-22T10:08:38;19.70;;;1.95;;
49842;SDS011;55559;48.898;9.184;2023-12-22T10:11:05;21.73;;;1.73;;
49842;SDS011;55559;48.898;9.184;2023-12-22T10:13:34;29.35;;;2.25;;
49842;SDS011;55559;48.898;9.184;2023-12-22T10:16:03;25.45;;;2.47;;
49842;SDS011;55559;48.898;9.184;2023-12-22T10:18:30;26.55;;;2.70;;
49842;SDS011;55559;48.898;9.184;2023-12-22T10:20:58;28.30;;;2.42;;
49842;SDS011;55559;48.898;9.184;2023-12-22T10:23:26;24.48;;;2.53;;
49842;SDS011;55559;48.898;9.184;2023-12-22T10:25:54;19.00;;;1.60;;
49842;SDS011;55559;48.898;9.184;2023-12-22T10:28:23;33.38;;;2.05;;
49842;SDS011;55559;48.898;9.184;2023-12-22T10:30:52;23.08;;;2.97;;
49842;SDS011;55559;48.898;9.184;2023-12-22T10:33:21;14.30;;;1.35;;
49842;SDS011;55559;48.898;9.184;2023-12-22T10:35:48;22.17;;;2.08;;
49842;SDS011;55559;48.898;9.184;2023-12-22T10:38:18;34.97;;;2.95;;
49842;SDS011;55559;48.898;9.184;2023-12-22T10:40:45;25.52;;;3.05;;
49842;SDS011;55559;48.898;9.184;2023-12-22T10:43:14;23.85;;;2.50;;
49842;SDS011;55559;48.898;9.184;2023-12-22T10:45:41;23.02;;;1.92;;
49842;SDS011;55559;48.898;9.184;2023-12-22T10:48:08;21.90;;;1.25;;
49842;SDS011;55559;48.898;9.184;2023-12-22T10:50:38;12.82;;;1.10;;
49842;SDS011;55559;48.898;9.184;2023-12-22T10:53:05;18.88;;;2.85;;
49842;SDS011;55559;48.898;9.184;2023-12-22T10:55:34;22.70;;;1.17;;
49842;SDS011;55559;48.898;9.184;2023-12-22T10:58:01;10.82;;;1.95;;
49842;SDS011;55559;48.898;9.184;2023-12-22T11:00:30;14.07;;;1.35;;
49842;SDS011;55559;48.898;9.184;2023-12-22T11:02:58;9.80;;;1.00;;
49842;SDS011;55559;48.898;9.184;2023-12-22T11:05:27;11.90;;;1.45;;
49842;SDS011;55559;48.898;9.184;2023-12-22T11:07:55;12.48;;;1.30;;
49842;SDS011;55559;48.898;9.184;2023-12-22T11:10:22;8.82;;;0.55;;
49842;SDS011;55559;48.898;9.184;2023-12-22T11:12:49;8.85;;;0.80;;
49842;SDS011;55559;48.898;9.184;2023-12-22T11:15:18;10.73;;;0.60;;
49842;SDS011;55559;48.898;9.184;2023-12-22T11:17:47;14.55;;;0.93;;
49842;SDS011;55559;48.898;9.184;2023-12-22T11:20:16;15.38;;;1.73;;
49842;SDS011;55559;48.898;9.184;2023-12-22T11:22:44;6.82;;;0.77;;
49842;SDS011;55559;48.898;9.184;2023-12-22T11:25:11;8.85;;;0.82;;
49842;SDS011;55559;48.898;9.184;2023-12-22T11:27:40;7.65;;;0.80;;
49842;SDS011;55559;48.898;9.184;2023-12-22T11:30:09;7.10;;;0.50;;
49842;SDS011;55559;48.898;9.184;2023-12-22T11:32:36;6.07;;;0.47;;
49842;SDS011;55559;48.898;9.184;2023-12-22T11:35:07;3.63;;;0.52;;
49842;SDS011;55559;48.898;9.184;2023-12-22T11:37:35;6.13;;;0.63;;
49842;SDS011;55559;48.898;9.184;2023-12-22T11:40:02;5.68;;;0.52;;
49842;SDS011;55559;48.898;9.184;2023-12-22T11:42:30;8.13;;;0.82;;
49842;SDS011;55559;48.898;9.184;2023-12-22T11:44:58;6.68;;;0.43;;
49842;SDS011;55559;48.898;9.184;2023-12-22T11:47:25;11.70;;;1.00;;
49842;SDS011;55559;48.898;9.184;2023-12-22T11:49:53;5.82;;;1.33;;
49842;SDS011;55559;48.898;9.184;2023-12-22T11:52:26;3.88;;;0.35;;
49842;SDS011;55559;48.898;9.184;2023-12-22T11:54:55;2.92;;;0.35;;
49842;SDS011;55559;48.898;9.184;2023-12-22T12:00:07;1.63;;;0.22;;
49842;SDS011;55559;48.898;9.184;2023-12-22T12:02:39;2.08;;;0.40;;
49842;SDS011;55559;48.898;9.184;2023-12-22T12:05:07;8.15;;;0.60;;
49842;SDS011;55559;48.898;9.184;2023-12-22T12:07:42;2.33;;;0.20;;
49842;SDS011;55559;48.898;9.184;2023-12-22T12:10:11;3.92;;;0.40;;
49842;SDS011;55559;48.898;9.184;2023-12-22T12:12:39;3.08;;;0.20;;
49842;SDS011;55559;48.898;9.184;2023-12-22T12:15:07;4.07;;;0.30;;
49842;SDS011;55559;48.898;9.184;2023-12-22T12:17:37;2.72;;;0.20;;
49842;SDS011;55559;48.898;9.184;2023-12-22T12:20:06;3.30;;;0.40;;
49842;SDS011;55559;48.898;9.184;2023-12-22T12:22:34;2.00;;;0.20;;
49842;SDS011;55559;48.898;9.184;2023-12-22T12:25:05;1.95;;;0.17;;
49842;SDS011;55559;48.898;9.184;2023-12-22T12:27:34;2.95;;;0.20;;
49842;SDS011;55559;48.898;9.184;2023-12-22T12:30:06;2.13;;;0.30;;
49842;SDS011;55559;48.898;9.184;2023-12-22T12:32:35;1.95;;;0.20;;
49842;SDS011;55559;48.898;9.184;2023-12-22T12:35:02;2.65;;;0.15;;
49842;SDS011;55559;48.898;9.184;2023-12-22T12:37:29;1.98;;;0.20;;
49842;SDS011;55559;48.898;9.184;2023-12-22T12:39:57;0.63;;;0.10;;
49842;SDS011;55559;48.898;9.184;2023-12-22T12:42:28;0.70;;;0.10;;
49842;SDS011;55559;48.898;9.184;2023-12-22T12:44:56;1.05;;;0.20;;
49842;SDS011;55559;48.898;9.184;2023-12-22T12:47:23;2.60;;;0.30;;
49842;SDS011;55559;48.898;9.184;2023-12-22T12:49:56;0.70;;;0.10;;
49842;SDS011;55559;48.898;9.184;2023-12-22T12:52:22;0.77;;;0.10;;
49842;SDS011;55559;48.898;9.184;2023-12-22T12:54:50;0.30;;;0.10;;
49842;SDS011;55559;48.898;9.184;2023-12-22T12:57:17;0.43;;;0.10;;
49842;SDS011;55559;48.898;9.184;2023-12-22T12:59:46;0.85;;;0.40;;
49842;SDS011;55559;48.898;9.184;2023-12-22T13:02:15;0.10;;;0.00;;
49842;SDS011;55559;48.898;9.184;2023-12-22T13:04:42;0.75;;;0.10;;
49842;SDS011;55559;48.898;9.184;2023-12-22T13:07:09;2.05;;;0.13;;
49842;SDS011;55559;48.898;9.184;2023-12-22T13:09:38;0.90;;;0.10;;
49842;SDS011;55559;48.898;9.184;2023-12-22T13:12:07;2.25;;;0.00;;
49842;SDS011;55559;48.898;9.184;2023-12-22T13:14:34;2.17;;;0.20;;
49842;SDS011;55559;48.898;9.184;2023-12-22T13:17:03;1.50;;;0.10;;
49842;SDS011;55559;48.898;9.184;2023-12-22T13:19:31;0.70;;;0.15;;
49842;SDS011;55559;48.898;9.184;2023-12-22T13:21:58;0.88;;;0.10;;
49842;SDS011;55559;48.898;9.184;2023-12-22T13:24:26;1.27;;;0.10;;
49842;SDS011;55559;48.898;9.184;2023-12-22T13:26:59;0.52;;;0.10;;
49842;SDS011;55559;48.898;9.184;2023-12-22T13:29:27;0.20;;;0.03;;
49842;SDS011;55559;48.898;9.184;2023-12-22T13:31:55;0.47;;;0.10;;
49842;SDS011;55559;48.898;9.184;2023-12-22T13:34:24;0.40;;;0.10;;
49842;SDS011;55559;48.898;9.184;2023-12-22T13:36:52;2.38;;;0.17;;
49842;SDS011;55559;48.898;9.184;2023-12-22T13:39:19;0.40;;;0.10;;
49842;SDS011;55559;48.898;9.184;2023-12-22T13:41:46;0.60;;;0.10;;
49842;SDS011;55559;48.898;9.184;2023-12-22T13:44:14;0.65;;;0.10;;
49842;SDS011;55559;48.898;9.184;2023-12-22T13:46:41;1.55;;;0.20;;
49842;SDS011;55559;48.898;9.184;2023-12-22T13:49:08;0.98;;;0.47;;
49842;SDS011;55559;48.898;9.184;2023-12-22T13:51:40;0.40;;;0.40;;
49842;SDS011;55559;48.898;9.184;2023-12-22T13:54:08;0.95;;;0.40;;
49842;SDS011;55559;48.898;9.184;2023-12-22T13:56:35;1.65;;;0.47;;
49842;SDS011;55559;48.898;9.184;2023-12-22T13:59:02;0.90;;;0.10;;
49842;SDS011;55559;48.898;9.184;2023-12-22T14:01:29;1.83;;;0.20;;
49842;SDS011;55559;48.898;9.184;2023-12-22T14:03:56;1.15;;;0.10;;
49842;SDS011;55559;48.898;9.184;2023-12-22T14:06:24;0.13;;;0.00;;
49842;SDS011;55559;48.898;9.184;2023-12-22T14:08:52;1.42;;;0.15;;
49842;SDS011;55559;48.898;9.184;2023-12-22T14:11:20;1.30;;;1.10;;
49842;SDS011;55559;48.898;9.184;2023-12-22T14:13:47;0.32;;;0.00;;
49842;SDS011;55559;48.898;9.184;2023-12-22T14:16:14;1.15;;;0.10;;
49842;SDS011;55559;48.898;9.184;2023-12-22T14:18:42;0.15;;;0.00;;
49842;SDS011;55559;48.898;9.184;2023-12-22T14:21:09;2.63;;;0.30;;
49842;SDS011;55559;48.898;9.184;2023-12-22T14:23:36;2.92;;;0.40;;
49842;SDS011;55559;48.898;9.184;2023-12-22T14:26:04;0.43;;;0.05;;
49842;SDS011;55559;48.898;9.184;2023-12-22T14:28:32;0.30;;;0.10;;
49842;SDS011;55559;48.898;9.184;2023-12-22T14:30:59;0.63;;;0.10;;
49842;SDS011;55559;48.898;9.184;2023-12-22T14:33:26;0.30;;;0.00;;
49842;SDS011;55559;48.898;9.184;2023-12-22T14:35:53;1.50;;;0.10;;
49842;SDS011;55559;48.898;9.184;2023-12-22T14:38:20;0.10;;;0.10;;
49842;SDS011;55559;48.898;9.184;2023-12-22T14:40:47;1.27;;;0.00;;
49842;SDS011;55559;48.898;9.184;2023-12-22T14:43:16;0.20;;;0.00;;
49842;SDS011;55559;48.898;9.184;2023-12-22T14:45:43;0.65;;;0.10;;
49842;SDS011;55559;48.898;9.184;2023-12-22T14:48:11;2.63;;;0.20;;